Time;durP1;ratioP1;P1;durP2;ratioP2;P2;SDS_P1;SDS_P2;PMS_P1;PMS_P2;Temp;Humidity;BMP_temperature;BMP_pressure;BME280_temperature;BME280_humidity;BME280_pressure;Samples;Min_cycle;Max_cycle;Signal;HPM_P1;HPM_P2
2023/09/13 00:02:00;;;;;;;0.60;0.55;;;23.50;53.50;;;;;;6219174;28;20092;-70
2023/09/13 00:05:01;;;;;;;0.90;0.70;;;23.50;53.50;;;;;;6221220;28;20393;-70
2023/09/13 00:08:02;;;;;;;0.60;0.60;;;23.50;53.40;;;;;;6218756;28;20026;-70
2023/09/13 00:11:04;;;;;;;1.42;0.70;;;23.40;54.20;;;;;;6211644;28;20117;-69
2023/09/13 00:14:05;;;;;;;0.70;0.60;;;23.20;54.50;;;;;;6219476;28;20045;-70
2023/09/13 00:17:06;;;;;;;0.90;0.70;;;23.20;55.10;;;;;;6219012;28;20014;-70
2023/09/13 00:20:07;;;;;;;0.88;0.68;;;23.10;55.30;;;;;;6226777;28;20029;-70
2023/09/13 00:23:08;;;;;;;0.80;0.80;;;23.00;55.50;;;;;;6219064;28;20492;-69
2023/09/13 00:26:08;;;;;;;1.25;0.70;;;23.10;55.70;;;;;;6225982;28;20065;-70
2023/09/13 00:29:09;;;;;;;0.80;0.70;;;23.00;55.90;;;;;;6225432;28;20021;-70
2023/09/13 00:32:09;;;;;;;1.17;0.70;;;23.00;56.20;;;;;;6218708;28;20029;-70
2023/09/13 00:35:10;;;;;;;0.60;0.60;;;23.00;56.40;;;;;;6224615;28;20029;-70
2023/09/13 00:38:11;;;;;;;0.77;0.57;;;23.00;56.60;;;;;;6218805;28;20382;-70
2023/09/13 00:41:11;;;;;;;0.70;0.60;;;22.90;56.70;;;;;;6223870;28;20493;-70
2023/09/13 00:44:12;;;;;;;0.75;0.60;;;22.90;57.20;;;;;;6222764;28;20029;-70
2023/09/13 00:47:12;;;;;;;0.60;0.57;;;22.90;57.10;;;;;;6218108;28;20033;-70
2023/09/13 00:50:16;;;;;;;1.33;0.80;;;22.90;57.00;;;;;;6222037;28;20028;-69
2023/09/13 00:53:18;;;;;;;0.90;0.70;;;22.90;57.20;;;;;;6218794;28;20378;-70
2023/09/13 00:56:18;;;;;;;0.80;0.75;;;22.90;57.20;;;;;;6225077;28;20021;-70
2023/09/13 00:59:19;;;;;;;0.75;0.68;;;22.90;57.30;;;;;;6220786;28;20025;-70
2023/09/13 01:02:20;;;;;;;0.57;0.57;;;22.90;57.60;;;;;;6218323;28;20072;-70
2023/09/13 01:05:21;;;;;;;1.40;0.85;;;22.90;57.60;;;;;;6220217;28;20112;-70
2023/09/13 01:08:22;;;;;;;0.63;0.63;;;22.90;57.80;;;;;;6218361;28;20026;-70
2023/09/13 01:11:23;;;;;;;0.70;0.68;;;22.90;57.80;;;;;;6219496;28;20061;-69
2023/09/13 01:14:24;;;;;;;0.63;0.60;;;22.90;57.90;;;;;;6218400;28;20401;-70
2023/09/13 01:17:34;;;;;;;0.88;0.70;;;22.90;57.90;;;;;;6218732;28;20026;-70
2023/09/13 01:21:05;;;;;;;0.88;0.68;;;22.80;57.90;;;;;;6225932;28;20393;-70
2023/09/13 01:24:18;;;;;;;1.17;0.77;;;22.80;58.10;;;;;;6218244;28;20038;-70
2023/09/13 01:27:37;;;;;;;1.00;0.70;;;22.80;58.20;;;;;;6212530;28;20026;-70
2023/09/13 01:30:40;;;;;;;0.63;0.63;;;22.80;58.10;;;;;;6224625;28;20029;-70
2023/09/13 01:33:40;;;;;;;0.63;0.60;;;22.80;58.20;;;;;;6218583;28;20022;-69
2023/09/13 01:36:41;;;;;;;0.70;0.68;;;22.80;58.30;;;;;;6223765;28;20088;-69
2023/09/13 01:39:42;;;;;;;0.73;0.70;;;22.80;58.40;;;;;;6220110;28;20029;-69
2023/09/13 01:42:45;;;;;;;0.73;0.73;;;22.80;58.50;;;;;;6220888;28;20045;-69
2023/09/13 01:45:47;;;;;;;0.65;0.65;;;22.80;58.70;;;;;;6223532;28;20026;-69
2023/09/13 01:48:48;;;;;;;0.75;0.65;;;22.80;58.60;;;;;;6222764;28;20036;-69
2023/09/13 01:51:49;;;;;;;0.98;0.60;;;22.80;58.70;;;;;;6224525;28;20026;-70
2023/09/13 01:54:50;;;;;;;0.95;0.85;;;22.70;58.80;;;;;;6223473;28;20100;-70
2023/09/13 01:57:50;;;;;;;0.90;0.80;;;22.80;58.90;;;;;;6226322;28;20161;-69
2023/09/13 02:00:51;;;;;;;0.80;0.75;;;22.80;59.20;;;;;;6223039;28;20026;-69
2023/09/13 02:03:51;;;;;;;0.70;0.63;;;22.80;59.50;;;;;;6222519;28;20037;-69
2023/09/13 02:06:53;;;;;;;0.90;0.80;;;22.70;58.90;;;;;;6222079;28;20022;-70
2023/09/13 02:09:54;;;;;;;0.65;0.65;;;22.80;59.00;;;;;;6222568;28;20423;-70
2023/09/13 02:12:54;;;;;;;0.82;0.75;;;22.80;58.90;;;;;;6222414;28;20104;-69
2023/09/13 02:15:55;;;;;;;0.70;0.70;;;22.80;59.10;;;;;;6222005;28;20014;-70
2023/09/13 02:18:55;;;;;;;0.80;0.75;;;22.80;59.00;;;;;;6222404;28;20026;-70
2023/09/13 02:21:56;;;;;;;1.00;0.90;;;22.80;59.10;;;;;;6228456;28;20026;-70
2023/09/13 02:24:57;;;;;;;0.98;0.80;;;22.80;59.20;;;;;;6221840;28;20022;-69
2023/09/13 02:27:57;;;;;;;0.93;0.75;;;22.70;59.10;;;;;;6227670;28;20365;-70
2023/09/13 02:30:58;;;;;;;0.80;0.70;;;22.70;59.20;;;;;;6226567;28;20100;-70
2023/09/13 02:33:58;;;;;;;0.90;0.80;;;22.70;59.20;;;;;;6221852;28;20775;-69
2023/09/13 02:36:59;;;;;;;1.17;0.75;;;22.70;59.20;;;;;;6225529;28;20050;-70
2023/09/13 02:40:00;;;;;;;0.82;0.68;;;22.70;59.30;;;;;;6221710;28;20022;-69
2023/09/13 02:43:00;;;;;;;0.98;0.75;;;22.70;59.30;;;;;;6225565;28;20037;-70
2023/09/13 02:46:01;;;;;;;1.00;0.75;;;22.70;59.30;;;;;;6225287;28;20029;-69
2023/09/13 02:49:01;;;;;;;0.88;0.77;;;22.70;59.40;;;;;;6221294;28;20113;-70
2023/09/13 02:52:02;;;;;;;4.13;1.00;;;22.70;59.40;;;;;;6223950;28;20018;-70
2023/09/13 02:55:06;;;;;;;0.70;0.70;;;22.70;59.50;;;;;;6221161;28;20026;-69
2023/09/13 02:58:08;;;;;;;0.70;0.70;;;22.70;59.50;;;;;;6220809;28;20034;-69
2023/09/13 03:01:10;;;;;;;0.73;0.70;;;22.70;59.60;;;;;;6223019;28;20385;-69
2023/09/13 03:04:11;;;;;;;1.35;0.70;;;22.70;59.60;;;;;;6221091;28;20030;-69
2023/09/13 03:07:12;;;;;;;0.73;0.70;;;22.70;59.60;;;;;;6221792;28;20755;-69
2023/09/13 03:10:12;;;;;;;0.90;0.70;;;22.70;59.60;;;;;;6220938;28;20026;-70
2023/09/13 03:13:13;;;;;;;0.80;0.60;;;22.60;59.60;;;;;;6220736;28;20127;-70
2023/09/13 03:16:15;;;;;;;0.90;0.70;;;22.70;59.80;;;;;;6220852;28;20022;-69
2023/09/13 03:19:15;;;;;;;1.48;0.80;;;22.70;59.90;;;;;;6220227;28;20064;-70
2023/09/13 03:22:16;;;;;;;1.17;0.75;;;22.70;59.80;;;;;;6227888;28;20029;-70
2023/09/13 03:25:16;;;;;;;1.08;0.93;;;22.70;59.90;;;;;;6220362;28;20557;-69
2023/09/13 03:28:17;;;;;;;0.70;0.70;;;22.70;59.90;;;;;;6226790;28;20026;-70
2023/09/13 03:31:19;;;;;;;0.93;0.80;;;22.70;59.90;;;;;;6219974;28;20132;-69
2023/09/13 03:34:20;;;;;;;1.10;0.70;;;22.60;59.90;;;;;;6226042;28;20029;-69
2023/09/13 03:37:21;;;;;;;1.20;0.90;;;22.70;60.00;;;;;;6225459;28;20033;-70
2023/09/13 03:40:21;;;;;;;1.02;0.82;;;22.70;60.00;;;;;;6220191;28;20049;-70
2023/09/13 03:43:22;;;;;;;0.80;0.70;;;22.60;60.00;;;;;;6224388;28;20042;-69
2023/09/13 03:46:22;;;;;;;1.17;0.95;;;22.60;60.20;;;;;;6220080;28;20172;-69
2023/09/13 03:49:23;;;;;;;0.60;0.60;;;22.60;60.20;;;;;;6224087;28;20030;-70
2023/09/13 03:52:23;;;;;;;1.17;1.00;;;22.60;60.20;;;;;;6222997;28;20026;-70
2023/09/13 03:55:24;;;;;;;0.70;0.60;;;22.60;60.20;;;;;;6219657;28;20440;-70
2023/09/13 03:58:25;;;;;;;0.90;0.70;;;22.70;60.50;;;;;;6226046;28;20034;-70
2023/09/13 04:01:26;;;;;;;1.35;0.90;;;22.60;60.30;;;;;;6219627;28;20033;-70
2023/09/13 04:04:27;;;;;;;0.63;0.63;;;22.60;60.40;;;;;;6221494;28;20492;-70
2023/09/13 04:07:28;;;;;;;0.77;0.75;;;22.60;60.40;;;;;;6220817;28;20033;-69
2023/09/13 04:10:29;;;;;;;1.30;0.70;;;22.60;60.40;;;;;;6219541;28;20456;-69
2023/09/13 04:13:30;;;;;;;1.38;0.95;;;22.60;60.50;;;;;;6218671;28;20053;-70
2023/09/13 04:16:31;;;;;;;1.08;0.88;;;22.60;60.50;;;;;;6219517;28;20116;-70
2023/09/13 04:19:31;;;;;;;0.90;0.73;;;22.60;60.60;;;;;;6227517;28;20477;-70
2023/09/13 04:22:32;;;;;;;1.10;0.90;;;22.60;60.60;;;;;;6222375;28;20036;-69
2023/09/13 04:25:32;;;;;;;0.70;0.70;;;22.60;60.70;;;;;;6223588;28;20022;-69
2023/09/13 04:28:33;;;;;;;1.23;0.85;;;22.60;60.60;;;;;;6225430;28;20030;-70
2023/09/13 04:31:34;;;;;;;1.60;0.88;;;22.60;60.70;;;;;;6219243;28;20057;-70
2023/09/13 04:34:36;;;;;;;0.88;0.80;;;22.60;60.80;;;;;;6225128;28;20385;-70
2023/09/13 04:37:37;;;;;;;0.80;0.57;;;22.60;60.70;;;;;;6220684;28;20029;-69
2023/09/13 04:40:43;;;;;;;0.88;0.70;;;22.60;60.70;;;;;;6222939;28;20034;-69
2023/09/13 04:43:43;;;;;;;1.23;0.90;;;22.60;60.80;;;;;;6223277;28;20370;-69
2023/09/13 04:46:44;;;;;;;0.70;0.70;;;22.60;61.00;;;;;;6218656;28;20026;-70
2023/09/13 04:49:44;;;;;;;0.88;0.70;;;22.60;60.80;;;;;;6222946;28;20022;-69
2023/09/13 04:52:45;;;;;;;1.00;0.60;;;22.60;61.00;;;;;;6219394;28;20574;-70
2023/09/13 04:55:46;;;;;;;1.48;0.90;;;22.60;61.00;;;;;;6222760;28;20121;-70
2023/09/13 04:58:46;;;;;;;0.82;0.77;;;22.60;61.00;;;;;;6223470;28;20585;-70
2023/09/13 05:01:47;;;;;;;0.90;0.80;;;22.60;61.10;;;;;;6216521;28;20044;-69
2023/09/13 05:04:47;;;;;;;0.73;0.70;;;22.60;61.30;;;;;;6220021;28;20109;-69
2023/09/13 05:07:48;;;;;;;0.95;0.75;;;22.60;61.10;;;;;;6207807;28;20076;-69
2023/09/13 05:10:51;;;;;;;1.00;0.80;;;22.60;61.20;;;;;;6220213;28;20071;-70
2023/09/13 05:14:11;;;;;;;10.13;5.82;;;22.60;61.00;;;;;;6220546;28;20129;-69
2023/09/13 05:17:12;;;;;;;11.23;6.30;;;22.60;62.50;;;;;;6217924;28;20401;-69
2023/09/13 05:20:12;;;;;;;10.82;4.38;;;22.50;64.60;;;;;;6228653;28;20139;-69
2023/09/13 05:23:13;;;;;;;5.63;2.95;;;22.50;65.40;;;;;;6222818;28;20374;-70
2023/09/13 05:26:14;;;;;;;8.88;3.10;;;22.50;66.20;;;;;;6214306;28;20066;-69
2023/09/13 05:29:14;;;;;;;10.38;3.38;;;22.50;67.00;;;;;;6228805;28;20996;-69
2023/09/13 05:32:15;;;;;;;6.57;2.97;;;22.50;67.00;;;;;;6223526;28;20038;-70
2023/09/13 05:35:16;;;;;;;6.35;3.10;;;22.40;67.20;;;;;;6232556;28;20425;-69
2023/09/13 05:38:17;;;;;;;6.07;3.25;;;22.40;67.30;;;;;;6223443;28;20037;-69
2023/09/13 05:41:18;;;;;;;5.88;2.92;;;22.40;67.00;;;;;;6228782;28;20036;-69
2023/09/13 05:44:24;;;;;;;5.50;2.75;;;22.40;67.40;;;;;;6226480;28;20061;-69
2023/09/13 05:47:24;;;;;;;9.65;3.30;;;22.50;67.50;;;;;;6224289;28;20056;-69
2023/09/13 05:50:26;;;;;;;10.23;3.55;;;22.40;67.90;;;;;;6225452;28;20029;-70
2023/09/13 05:53:26;;;;;;;9.10;3.97;;;22.50;68.30;;;;;;6222853;28;20022;-70
2023/09/13 05:56:27;;;;;;;7.57;3.35;;;22.50;69.00;;;;;;6228670;28;20029;-70
2023/09/13 05:59:29;;;;;;;6.90;3.53;;;22.40;67.40;;;;;;6223543;28;20120;-70
2023/09/13 06:02:30;;;;;;;9.02;4.63;;;22.50;69.00;;;;;;6219550;28;20038;-69
2023/09/13 06:05:30;;;;;;;9.63;4.57;;;22.40;68.20;;;;;;6225657;28;20109;-69
2023/09/13 06:08:31;;;;;;;8.85;3.50;;;22.50;67.20;;;;;;6225698;28;20022;-69
2023/09/13 06:11:31;;;;;;;11.40;5.63;;;22.50;67.00;;;;;;6225409;28;20057;-70
2023/09/13 06:14:32;;;;;;;8.57;4.20;;;22.50;69.70;;;;;;6224165;28;20081;-70
2023/09/13 06:17:32;;;;;;;9.57;5.18;;;22.50;68.30;;;;;;6225809;28;20057;-70
2023/09/13 06:20:33;;;;;;;14.55;6.22;;;22.50;69.00;;;;;;6231079;28;20026;-70
2023/09/13 06:23:38;;;;;;;11.27;5.07;;;22.50;69.10;;;;;;6224702;28;20057;-69
2023/09/13 06:26:39;;;;;;;14.82;5.22;;;22.50;68.70;;;;;;6231010;28;20026;-70
2023/09/13 06:29:40;;;;;;;15.82;5.70;;;22.50;69.10;;;;;;6227223;28;20063;-70
2023/09/13 06:32:40;;;;;;;12.43;5.07;;;22.50;67.60;;;;;;6219948;28;20029;-70
2023/09/13 06:35:41;;;;;;;11.30;4.93;;;22.50;67.60;;;;;;6227853;28;20041;-70
2023/09/13 06:38:42;;;;;;;12.77;4.00;;;22.50;66.80;;;;;;6223946;28;20106;-70
2023/09/13 06:41:42;;;;;;;12.02;4.15;;;22.50;67.50;;;;;;6227631;28;20108;-70
2023/09/13 06:44:43;;;;;;;8.25;3.67;;;22.50;66.40;;;;;;6225336;28;20070;-70
2023/09/13 06:47:43;;;;;;;12.07;4.40;;;22.50;66.00;;;;;;6225291;28;20026;-72
2023/09/13 06:50:44;;;;;;;9.48;3.75;;;22.50;66.00;;;;;;6226431;28;20022;-71
2023/09/13 06:53:45;;;;;;;8.77;3.75;;;22.50;65.80;;;;;;6223457;28;20022;-71
2023/09/13 06:56:45;;;;;;;11.02;3.70;;;22.50;65.70;;;;;;6225169;28;20485;-71
2023/09/13 06:59:46;;;;;;;8.25;3.30;;;22.50;65.60;;;;;;6223601;28;20065;-70
2023/09/13 07:02:47;;;;;;;7.20;3.75;;;22.50;65.50;;;;;;6224323;28;20042;-70
2023/09/13 07:05:50;;;;;;;5.97;3.40;;;22.50;65.40;;;;;;6223748;28;20026;-71
2023/09/13 07:08:51;;;;;;;11.43;4.07;;;22.50;65.30;;;;;;6223413;28;20068;-70
2023/09/13 07:11:51;;;;;;;6.20;2.90;;;22.50;65.20;;;;;;6224301;28;20022;-70
2023/09/13 07:14:53;;;;;;;8.27;3.53;;;22.50;65.20;;;;;;6222588;28;20054;-71
2023/09/13 07:17:54;;;;;;;19.48;4.28;;;22.50;65.10;;;;;;6223259;28;20121;-70
2023/09/13 07:20:54;;;;;;;5.13;2.83;;;22.50;65.00;;;;;;6229942;28;20533;-70
2023/09/13 07:23:55;;;;;;;6.85;3.45;;;22.50;64.90;;;;;;6222889;28;20038;-70
2023/09/13 07:26:55;;;;;;;6.32;3.13;;;22.50;64.90;;;;;;6228883;28;20370;-70
2023/09/13 07:29:56;;;;;;;4.20;2.80;;;22.50;64.80;;;;;;6222619;28;20029;-70
2023/09/13 07:32:57;;;;;;;6.53;3.30;;;22.50;64.80;;;;;;6227948;28;20056;-70
2023/09/13 07:35:57;;;;;;;7.32;3.08;;;22.50;64.70;;;;;;6226823;28;20026;-70
2023/09/13 07:39:00;;;;;;;5.43;2.95;;;22.50;64.70;;;;;;6222548;28;20049;-70
2023/09/13 07:42:00;;;;;;;5.95;3.10;;;22.50;64.60;;;;;;6225372;28;20062;-70
2023/09/13 07:45:01;;;;;;;5.90;2.83;;;22.50;64.60;;;;;;6222268;28;20022;-70
2023/09/13 07:48:05;;;;;;;4.43;2.80;;;22.50;65.40;;;;;;6226234;28;20029;-70
2023/09/13 07:51:05;;;;;;;7.85;2.97;;;22.50;64.60;;;;;;6225699;28;20029;-70
2023/09/13 07:54:07;;;;;;;5.32;2.95;;;22.50;64.60;;;;;;6220809;28;20033;-69
2023/09/13 07:57:08;;;;;;;4.72;2.58;;;22.50;64.50;;;;;;6221260;28;20042;-70
2023/09/13 08:00:09;;;;;;;4.13;2.63;;;22.50;64.50;;;;;;6219984;28;20026;-70
2023/09/13 08:03:10;;;;;;;4.43;2.60;;;22.50;64.50;;;;;;6223226;28;20038;-70
2023/09/13 08:06:11;;;;;;;6.13;3.05;;;22.50;64.50;;;;;;6223706;28;20056;-71
2023/09/13 08:09:15;;;;;;;4.53;2.72;;;22.50;64.50;;;;;;6221364;28;20040;-70
2023/09/13 08:12:16;;;;;;;6.13;3.10;;;22.50;64.50;;;;;;6222697;28;20072;-70
2023/09/13 08:15:17;;;;;;;5.30;2.80;;;22.50;64.50;;;;;;6221919;28;20032;-70
2023/09/13 08:18:18;;;;;;;3.13;2.47;;;22.50;64.40;;;;;;6221961;28;20022;-70
2023/09/13 08:21:18;;;;;;;3.22;2.40;;;22.50;64.40;;;;;;6223403;28;20034;-70
2023/09/13 08:24:19;;;;;;;4.90;2.70;;;22.50;64.40;;;;;;6227265;28;20061;-70
2023/09/13 08:27:19;;;;;;;3.60;2.50;;;22.50;64.30;;;;;;6228926;28;20014;-70
2023/09/13 08:30:20;;;;;;;3.42;2.42;;;22.50;64.30;;;;;;6221311;28;20032;-71
2023/09/13 08:33:20;;;;;;;3.53;2.40;;;22.50;64.30;;;;;;6227993;28;20444;-70
2023/09/13 08:36:21;;;;;;;3.72;2.40;;;22.50;64.30;;;;;;6221372;28;20084;-70
2023/09/13 08:39:22;;;;;;;5.00;2.30;;;22.50;64.30;;;;;;6226793;28;20029;-70
2023/09/13 08:42:24;;;;;;;2.88;2.50;;;22.50;64.30;;;;;;6226686;28;20026;-70
2023/09/13 08:45:25;;;;;;;5.55;2.42;;;22.50;64.30;;;;;;6220955;28;20025;-71
2023/09/13 08:48:27;;;;;;;3.08;2.22;;;22.50;64.30;;;;;;6226187;28;20030;-70
2023/09/13 08:51:28;;;;;;;3.20;2.30;;;22.50;64.30;;;;;;6221293;28;20037;-71
2023/09/13 08:54:31;;;;;;;4.10;2.50;;;22.50;64.30;;;;;;6227605;28;20496;-71
2023/09/13 08:57:34;;;;;;;3.95;2.60;;;22.50;64.30;;;;;;6232990;28;20505;-70
2023/09/13 09:00:39;;;;;;;3.63;2.20;;;22.50;64.30;;;;;;6226348;28;20018;-70
2023/09/13 09:03:41;;;;;;;3.97;2.28;;;22.50;64.30;;;;;;6228464;28;20072;-70
2023/09/13 09:06:42;;;;;;;2.78;2.17;;;22.50;64.30;;;;;;6226016;28;20463;-70
2023/09/13 09:09:46;;;;;;;2.70;1.90;;;22.50;64.30;;;;;;6227425;28;20029;-70
2023/09/13 09:12:50;;;;;;;3.60;2.30;;;22.50;64.30;;;;;;6227181;28;20100;-70
2023/09/13 09:15:52;;;;;;;2.72;2.08;;;22.50;64.30;;;;;;6225385;28;20265;-70
2023/09/13 09:18:54;;;;;;;3.35;2.22;;;22.50;64.30;;;;;;6226392;28;20022;-70
2023/09/13 09:21:58;;;;;;;2.53;2.20;;;22.50;64.30;;;;;;6225273;28;20552;-70
2023/09/13 09:25:08;;;;;;;3.40;2.20;;;22.50;64.30;;;;;;6232344;28;20057;-70
2023/09/13 09:28:08;;;;;;;3.42;2.28;;;22.50;64.40;;;;;;6229963;28;20276;-70
2023/09/13 09:31:10;;;;;;;3.00;2.17;;;22.50;64.30;;;;;;6224925;28;20053;-70
2023/09/13 09:34:12;;;;;;;2.42;2.10;;;22.50;64.30;;;;;;6232138;28;20022;-71
2023/09/13 09:37:13;;;;;;;2.58;2.03;;;22.50;64.30;;;;;;6225012;28;20037;-70
2023/09/13 09:40:14;;;;;;;3.13;2.40;;;22.50;64.30;;;;;;6231081;28;20025;-70
2023/09/13 09:43:15;;;;;;;3.03;1.98;;;22.50;64.30;;;;;;6230374;28;20065;-71
2023/09/13 09:46:16;;;;;;;2.70;2.17;;;22.50;64.30;;;;;;6224851;28;20020;-71
2023/09/13 09:49:17;;;;;;;2.58;2.03;;;22.50;64.30;;;;;;6232076;28;20122;-70
2023/09/13 09:52:19;;;;;;;3.63;2.10;;;22.50;64.30;;;;;;6224813;28;20048;-70
2023/09/13 09:55:21;;;;;;;2.58;2.00;;;22.50;64.40;;;;;;6228356;28;20413;-70
2023/09/13 09:58:22;;;;;;;2.30;1.63;;;22.50;64.30;;;;;;6232198;28;20120;-71
2023/09/13 10:01:23;;;;;;;3.90;1.85;;;22.50;64.30;;;;;;6224451;28;20081;-71
2023/09/13 10:04:23;;;;;;;2.20;2.00;;;22.50;64.30;;;;;;6227023;28;20046;-70
2023/09/13 10:07:24;;;;;;;2.10;1.75;;;22.50;64.30;;;;;;6223709;28;20104;-70
2023/09/13 10:10:34;;;;;;;3.00;1.80;;;22.50;64.30;;;;;;6226249;28;20049;-70
2023/09/13 10:13:36;;;;;;;2.55;1.80;;;22.50;64.30;;;;;;6225386;28;20065;-69
2023/09/13 10:16:37;;;;;;;2.50;1.70;;;22.50;64.30;;;;;;6224224;28;20030;-70
2023/09/13 10:19:40;;;;;;;1.92;1.48;;;22.50;64.30;;;;;;6224782;28;20496;-70
2023/09/13 10:22:42;;;;;;;2.45;2.08;;;22.50;64.30;;;;;;6224085;28;20049;-70
2023/09/13 10:25:44;;;;;;;2.97;2.10;;;22.50;64.30;;;;;;6232428;28;20053;-70
2023/09/13 10:28:48;;;;;;;2.47;1.90;;;22.50;64.30;;;;;;6228435;28;20010;-71
2023/09/13 10:31:53;;;;;;;2.20;1.60;;;22.50;64.30;;;;;;6226339;28;20026;-70
2023/09/13 10:34:58;;;;;;;2.58;1.65;;;22.50;64.30;;;;;;6229271;28;20026;-70
2023/09/13 10:38:15;;;;;;;2.85;2.05;;;22.50;64.30;;;;;;6224144;28;20056;-70
2023/09/13 10:41:18;;;;;;;2.67;2.08;;;22.50;64.30;;;;;;6229919;28;20030;-70
2023/09/13 10:44:20;;;;;;;2.53;1.67;;;22.50;64.30;;;;;;6228494;28;20060;-70
2023/09/13 10:47:21;;;;;;;2.20;1.85;;;22.50;64.30;;;;;;6223716;28;20026;-70
2023/09/13 10:50:24;;;;;;;2.53;2.00;;;22.40;64.20;;;;;;6228346;28;20038;-70
2023/09/13 10:53:26;;;;;;;2.25;1.77;;;22.50;64.30;;;;;;6223936;28;20431;-70
2023/09/13 10:56:28;;;;;;;2.63;1.73;;;22.50;64.30;;;;;;6231088;28;20033;-70
2023/09/13 10:59:30;;;;;;;1.92;1.50;;;22.40;64.20;;;;;;6226945;28;20088;-70
2023/09/13 11:02:33;;;;;;;1.80;1.50;;;22.50;64.30;;;;;;6223436;28;20034;-70
2023/09/13 11:05:34;;;;;;;1.85;1.45;;;22.50;64.30;;;;;;6225806;28;20030;-71
2023/09/13 11:08:35;;;;;;;2.38;1.80;;;22.50;64.30;;;;;;6223473;28;20042;-70
2023/09/13 11:11:35;;;;;;;2.08;1.70;;;22.50;64.30;;;;;;6225174;28;20022;-70
2023/09/13 11:14:36;;;;;;;1.60;1.50;;;22.50;64.30;;;;;;6223805;28;20786;-70
2023/09/13 11:17:39;;;;;;;1.90;1.50;;;22.50;64.30;;;;;;6222571;28;20133;-70
2023/09/13 11:20:41;;;;;;;1.70;1.50;;;22.50;64.30;;;;;;6223460;28;20045;-71
2023/09/13 11:23:49;;;;;;;2.17;1.88;;;22.50;64.30;;;;;;6223134;28;20076;-70
2023/09/13 11:26:54;;;;;;;2.30;1.75;;;22.50;64.30;;;;;;6230792;28;20034;-70
2023/09/13 11:29:58;;;;;;;1.35;1.15;;;22.40;64.30;;;;;;6228578;28;20028;-70
2023/09/13 11:32:59;;;;;;;2.40;1.70;;;22.40;64.30;;;;;;6224067;28;20037;-70
2023/09/13 11:36:02;;;;;;;2.05;1.67;;;22.50;64.30;;;;;;6228733;28;20519;-70
2023/09/13 11:39:22;;;;;;;2.45;1.70;;;22.50;64.30;;;;;;6318073;28;20144;-70
2023/09/13 11:42:28;;;;;;;1.52;1.38;;;22.50;64.40;;;;;;6318246;28;20521;-70
2023/09/13 11:45:33;;;;;;;2.20;1.60;;;22.50;64.30;;;;;;6318126;28;20051;-70
2023/09/13 11:48:41;;;;;;;1.67;1.55;;;22.50;64.40;;;;;;6318106;28;20031;-70
2023/09/13 11:51:49;;;;;;;2.35;1.63;;;22.50;64.40;;;;;;6317939;28;20070;-70
2023/09/13 11:54:59;;;;;;;1.83;1.40;;;22.50;64.40;;;;;;6316665;28;20031;-70
2023/09/13 11:58:03;;;;;;;1.60;1.50;;;22.50;64.40;;;;;;6317797;28;20032;-70
2023/09/13 12:01:07;;;;;;;1.50;1.40;;;22.50;64.40;;;;;;6317892;28;20024;-70
2023/09/13 12:04:09;;;;;;;1.25;1.15;;;22.50;64.40;;;;;;6317706;28;20028;-70
2023/09/13 12:07:10;;;;;;;1.65;1.55;;;22.50;64.40;;;;;;6315970;28;20024;-70
2023/09/13 12:10:11;;;;;;;2.08;1.58;;;22.50;64.40;;;;;;6317540;28;20534;-70
2023/09/13 12:13:12;;;;;;;1.42;1.33;;;22.50;64.40;;;;;;6317325;28;20032;-69
2023/09/13 12:16:14;;;;;;;1.95;1.48;;;22.50;64.40;;;;;;6317513;28;20497;-70
2023/09/13 12:19:15;;;;;;;1.75;1.33;;;22.50;65.30;;;;;;6317060;28;20021;-70
2023/09/13 12:22:17;;;;;;;1.70;1.40;;;22.50;64.40;;;;;;6317506;28;20021;-70
2023/09/13 12:25:18;;;;;;;2.05;1.50;;;22.50;64.40;;;;;;6315724;28;20054;-70
2023/09/13 12:28:45;;;;;;;1.40;1.30;;;22.50;64.50;;;;;;6317122;28;20029;-70
2023/09/13 12:31:46;;;;;;;1.73;1.50;;;22.50;64.50;;;;;;6315575;28;20452;-70
2023/09/13 12:34:47;;;;;;;1.83;1.50;;;22.50;64.50;;;;;;6315732;28;20028;-70
2023/09/13 12:38:02;;;;;;;1.30;1.15;;;22.50;64.40;;;;;;6316668;28;20040;-70
2023/09/13 12:41:03;;;;;;;1.58;1.30;;;22.50;64.50;;;;;;6316977;28;20030;-70
2023/09/13 12:44:04;;;;;;;1.50;1.35;;;22.50;64.50;;;;;;6316805;28;20024;-69
2023/09/13 12:47:06;;;;;;;2.00;1.42;;;22.40;64.40;;;;;;6315155;28;20024;-70
2023/09/13 12:50:07;;;;;;;1.83;1.40;;;22.40;64.40;;;;;;6302278;28;20203;-70
2023/09/13 12:53:07;;;;;;;2.28;1.30;;;22.40;64.40;;;;;;6299665;28;20032;-69
2023/09/13 12:56:10;;;;;;;1.65;1.20;;;22.40;64.40;;;;;;6299460;28;20056;-69
2023/09/13 12:59:11;;;;;;;1.40;1.27;;;22.50;64.50;;;;;;6298884;28;20024;-70
2023/09/13 13:02:13;;;;;;;1.55;1.30;;;22.50;64.50;;;;;;6299692;28;20103;-70
2023/09/13 13:05:14;;;;;;;1.20;1.10;;;22.50;64.50;;;;;;6298075;28;20023;-69
2023/09/13 13:08:15;;;;;;;2.22;1.42;;;22.40;64.40;;;;;;6299320;28;20070;-70
2023/09/13 13:11:15;;;;;;;1.33;1.23;;;22.50;64.50;;;;;;6299337;28;20442;-70
2023/09/13 13:14:19;;;;;;;1.75;1.20;;;22.50;64.50;;;;;;6299092;28;20512;-69
2023/09/13 13:17:31;;;;;;;1.50;1.30;;;22.40;64.40;;;;;;6299051;28;20082;-69
2023/09/13 13:20:32;;;;;;;1.50;1.30;;;22.50;64.50;;;;;;6298813;28;20493;-69
2023/09/13 13:23:33;;;;;;;1.10;1.00;;;22.50;64.50;;;;;;6298764;28;20017;-69
2023/09/13 13:26:34;;;;;;;1.67;1.25;;;22.50;64.50;;;;;;6298368;28;20032;-70
2023/09/13 13:29:36;;;;;;;1.42;1.23;;;22.40;64.40;;;;;;6299105;28;20051;-70
2023/09/13 13:32:38;;;;;;;1.35;1.20;;;22.50;64.50;;;;;;6298783;28;20082;-69
2023/09/13 13:35:39;;;;;;;1.40;1.15;;;22.40;64.40;;;;;;6297863;28;20025;-69
2023/09/13 13:38:40;;;;;;;1.20;1.10;;;22.40;64.40;;;;;;6298420;28;20040;-70
2023/09/13 13:41:44;;;;;;;1.40;1.10;;;22.40;64.50;;;;;;6299293;28;20016;-70
2023/09/13 13:44:45;;;;;;;1.30;1.20;;;22.50;64.50;;;;;;6296874;28;20058;-69
2023/09/13 13:47:46;;;;;;;1.60;1.45;;;22.40;64.40;;;;;;6296796;28;20024;-70
2023/09/13 13:50:47;;;;;;;1.05;0.95;;;22.50;65.40;;;;;;6298394;28;20020;-69
2023/09/13 13:53:47;;;;;;;1.20;1.10;;;22.40;64.40;;;;;;6298304;28;20037;-69
2023/09/13 13:56:48;;;;;;;1.27;1.17;;;22.40;64.40;;;;;;6297800;28;20048;-69
2023/09/13 13:59:49;;;;;;;1.58;1.20;;;22.50;64.50;;;;;;6297280;28;20029;-69
2023/09/13 14:02:54;;;;;;;1.60;1.10;;;22.40;64.40;;;;;;6296508;28;20085;-69
2023/09/13 14:05:54;;;;;;;1.20;1.10;;;22.40;64.50;;;;;;6296676;28;20478;-69
2023/09/13 14:08:55;;;;;;;1.20;0.95;;;22.40;64.40;;;;;;6297889;28;20035;-68
2023/09/13 14:11:56;;;;;;;1.27;1.17;;;22.40;64.40;;;;;;6296551;28;20031;-69
2023/09/13 14:14:57;;;;;;;1.25;1.10;;;22.40;64.40;;;;;;6297671;28;20479;-69
2023/09/13 14:17:57;;;;;;;1.30;1.10;;;22.40;64.50;;;;;;6296072;28;20025;-69
2023/09/13 14:20:58;;;;;;;1.75;1.27;;;22.40;64.40;;;;;;6297963;28;20461;-69
2023/09/13 14:24:01;;;;;;;1.40;1.30;;;22.50;64.60;;;;;;6297301;28;20024;-69
2023/09/13 14:27:02;;;;;;;1.30;1.20;;;22.40;64.50;;;;;;6297486;28;20094;-69
2023/09/13 14:30:04;;;;;;;1.48;1.27;;;22.40;64.50;;;;;;6297174;28;20104;-69
2023/09/13 14:33:05;;;;;;;1.33;1.08;;;22.40;64.50;;;;;;6297268;28;20017;-69
2023/09/13 14:36:06;;;;;;;1.27;1.05;;;22.40;64.50;;;;;;6297054;28;20031;-69
2023/09/13 14:39:06;;;;;;;1.13;0.90;;;22.40;64.50;;;;;;6296806;28;20041;-69
2023/09/13 14:42:07;;;;;;;1.05;0.95;;;22.40;64.50;;;;;;6296778;28;20039;-69
2023/09/13 14:45:08;;;;;;;1.08;0.98;;;22.40;64.50;;;;;;6297226;28;20104;-69
2023/09/13 14:48:09;;;;;;;1.45;1.25;;;22.40;64.50;;;;;;6296690;28;20024;-69
2023/09/13 14:51:11;;;;;;;1.13;1.00;;;22.40;64.50;;;;;;6296925;28;20060;-69
2023/09/13 14:54:11;;;;;;;1.10;0.88;;;22.40;64.50;;;;;;6295489;28;20032;-73
2023/09/13 14:57:12;;;;;;;1.10;1.00;;;22.40;64.50;;;;;;6290783;28;20029;-75
2023/09/13 15:00:14;;;;;;;1.10;1.00;;;22.40;64.50;;;;;;6304145;28;20478;-75
2023/09/13 15:03:15;;;;;;;28.05;2.05;;;22.40;65.00;;;;;;6297345;28;20024;-76
2023/09/13 15:06:17;;;;;;;10.95;1.30;;;22.50;66.70;;;;;;6287190;28;20123;-74
2023/09/13 15:09:18;;;;;;;9.73;1.30;;;22.60;66.60;;;;;;6295860;28;20490;-78
2023/09/13 15:12:19;;;;;;;12.50;1.30;;;22.60;67.40;;;;;;6286276;28;20020;-75
2023/09/13 15:15:20;;;;;;;4.55;1.15;;;22.60;66.60;;;;;;6292655;28;20052;-75
2023/09/13 15:18:21;;;;;;;9.15;1.50;;;22.60;67.10;;;;;;6296902;28;20058;-75
2023/09/13 15:21:24;;;;;;;12.43;1.70;;;22.60;66.20;;;;;;6299713;28;20497;-75
2023/09/13 15:24:25;;;;;;;11.95;1.27;;;22.70;67.60;;;;;;6299355;28;20425;-75
2023/09/13 15:27:26;;;;;;;19.27;2.05;;;22.70;67.40;;;;;;6302038;28;20082;-74
2023/09/13 15:30:27;;;;;;;6.78;1.20;;;22.80;68.10;;;;;;6294675;28;20032;-74
2023/09/13 15:33:27;;;;;;;5.47;1.35;;;22.70;67.70;;;;;;6294202;28;20032;-76
2023/09/13 15:36:28;;;;;;;1.58;1.00;;;22.80;67.70;;;;;;6293217;28;20029;-75
2023/09/13 15:39:29;;;;;;;10.05;1.20;;;22.80;68.10;;;;;;6300630;28;20063;-74
2023/09/13 15:42:29;;;;;;;7.10;1.55;;;22.80;67.90;;;;;;6302970;28;20425;-76
2023/09/13 15:45:32;;;;;;;21.73;1.92;;;22.80;67.70;;;;;;6309170;28;20146;-75